Terminal Aerodrome Forecast
Issued by NWS

Home | Current Version | Previous Version | Text Only | Print | Product List | Glossary On
Versions: 1 2 3 4 5 6 7 8 9 10 11 12 13 14
000
FTUS41 KCAR 261700 RRA
TAFFVE
TAF
KFVE 261751Z 2618/2718 24015G25KT P6SM SCT250
     FM262300 24007KT P6SM SCT250
     FM270900 19006KT P6SM BKN025
     FM271100 19004KT P6SM BKN015
     FM271500 19008KT 5SM -SHRA SCT015 OVC025=

USA.gov is the U.S. government's official web portal to all federal, state and local government web resources and services.